Time;durP1;ratioP1;P1;durP2;ratioP2;P2;SDS_P1;SDS_P2;PMS_P1;PMS_P2;Temp;Humidity;BMP_temperature;BMP_pressure;BME280_temperature;BME280_humidity;BME280_pressure;Samples;Min_cycle;Max_cycle;Signal;HPM_P1;HPM_P2
2022/11/18 00:01:52;;;;;;;5.90;2.50;;;11.40;99.90;;;;;;4928518;29;20494;-87
2022/11/18 00:05:11;;;;;;;3.80;2.30;;;11.30;99.90;;;;;;4943571;29;20963;-87
2022/11/18 00:08:03;;;;;;;4.00;2.50;;;11.40;99.90;;;;;;4944787;29;20474;-86
2022/11/18 00:11:06;;;;;;;6.57;2.20;;;11.60;99.90;;;;;;4927741;29;20457;-86
2022/11/18 00:16:49;;;;;;;3.30;2.40;;;11.50;99.90;;;;;;4950439;29;20461;-86
2022/11/18 00:19:21;;;;;;;2.57;2.23;;;11.60;99.90;;;;;;4927032;29;20456;-87
2022/11/18 00:21:53;;;;;;;2.53;1.80;;;11.60;99.90;;;;;;4933092;29;20457;-84
2022/11/18 00:24:29;;;;;;;4.47;2.07;;;11.60;99.90;;;;;;4929452;29;20544;-84
2022/11/18 00:27:09;;;;;;;2.07;1.87;;;11.60;99.90;;;;;;4945091;28;20466;-84
2022/11/18 00:29:41;;;;;;;2.50;2.20;;;11.50;99.90;;;;;;4943851;28;20467;-84
2022/11/18 00:32:16;;;;;;;5.37;2.50;;;11.40;99.90;;;;;;4946413;28;20476;-84
2022/11/18 00:34:51;;;;;;;4.17;3.10;;;11.40;99.90;;;;;;4942930;28;20581;-83
2022/11/18 00:37:18;;;;;;;5.10;2.30;;;11.20;99.90;;;;;;4936077;28;20453;-84
2022/11/18 00:39:45;;;;;;;4.90;2.60;;;11.30;99.90;;;;;;4919919;29;20529;-86
2022/11/18 00:45:02;;;;;;;5.83;2.20;;;11.40;99.90;;;;;;4934963;29;20479;-83
2022/11/18 00:47:31;;;;;;;5.30;2.20;;;11.50;99.90;;;;;;4917966;29;20472;-86
2022/11/18 00:50:01;;;;;;;3.30;2.00;;;11.50;99.90;;;;;;4918351;29;20489;-85
2022/11/18 00:52:34;;;;;;;4.07;2.33;;;11.30;99.90;;;;;;4914420;29;20534;-87
2022/11/18 00:55:05;;;;;;;4.63;1.80;;;11.20;99.90;;;;;;4922616;29;20547;-86
2022/11/18 00:57:35;;;;;;;3.90;2.37;;;11.30;99.90;;;;;;4917465;29;20523;-87
2022/11/18 01:00:09;;;;;;;8.07;2.70;;;11.30;99.90;;;;;;4918193;29;20958;-86
2022/11/18 01:05:40;;;;;;;2.80;1.80;;;11.70;99.90;;;;;;4134609;26;20517;-84
2022/11/18 01:08:43;;;;;;;6.50;2.77;;;11.70;99.90;;;;;;4955249;28;20460;-86
2022/11/18 01:23:45;;;;;;;7.20;2.70;;;11.70;99.90;;;;;;4951233;28;20495;-85
2022/11/18 01:26:41;;;;;;;3.17;2.33;;;11.70;99.90;;;;;;4941255;28;20451;-86
2022/11/18 01:29:30;;;;;;;2.70;2.40;;;11.50;99.90;;;;;;4938594;28;20440;-87
2022/11/18 01:32:43;;;;;;;4.30;2.30;;;11.40;99.90;;;;;;4944586;28;20473;-87
2022/11/18 01:35:55;;;;;;;3.73;1.90;;;11.70;99.90;;;;;;4958939;28;20483;-87
2022/11/18 01:38:40;;;;;;;3.43;2.13;;;11.80;99.90;;;;;;4943145;28;20470;-87
2022/11/18 01:41:27;;;;;;;3.17;1.97;;;11.80;99.90;;;;;;4948149;28;20503;-84
2022/11/18 01:44:39;;;;;;;5.30;2.50;;;11.70;99.90;;;;;;4956127;28;20514;-85
2022/11/18 01:47:41;;;;;;;2.50;2.30;;;11.50;99.90;;;;;;4972054;28;20474;-85
2022/11/18 01:50:39;;;;;;;4.03;2.40;;;11.50;99.90;;;;;;4968138;28;20467;-83
2022/11/18 01:53:34;;;;;;;2.80;2.13;;;11.50;99.90;;;;;;4966996;28;20498;-84
2022/11/18 01:56:40;;;;;;;8.73;2.20;;;11.50;99.90;;;;;;4962678;28;20487;-84
2022/11/18 01:59:49;;;;;;;3.17;2.23;;;11.60;99.90;;;;;;4947793;28;20457;-86
2022/11/18 02:03:19;;;;;;;3.80;2.20;;;11.50;99.90;;;;;;4963340;28;20463;-86
2022/11/18 02:06:43;;;;;;;3.83;1.90;;;11.60;99.90;;;;;;4940122;28;20939;-87
2022/11/18 02:09:50;;;;;;;5.40;2.40;;;11.80;99.90;;;;;;4947848;28;20494;-85
2022/11/18 02:12:53;;;;;;;2.47;2.07;;;11.70;99.90;;;;;;4944690;28;20463;-87
2022/11/18 02:15:43;;;;;;;2.77;2.20;;;11.50;99.90;;;;;;4944083;28;20467;-85
2022/11/18 02:19:01;;;;;;;3.23;2.00;;;11.50;99.90;;;;;;4943717;28;20558;-85
2022/11/18 02:22:14;;;;;;;7.90;2.37;;;11.60;99.90;;;;;;4953565;28;20492;-86
2022/11/18 02:25:21;;;;;;;5.87;2.10;;;11.60;99.90;;;;;;4953162;28;20566;-85
2022/11/18 02:28:19;;;;;;;2.57;1.93;;;11.60;99.90;;;;;;4950700;28;20581;-84
2022/11/18 02:31:27;;;;;;;2.40;1.93;;;11.60;99.90;;;;;;4948648;28;20465;-85
2022/11/18 02:34:19;;;;;;;4.00;2.20;;;11.60;99.90;;;;;;4946302;28;20491;-84
2022/11/18 02:37:01;;;;;;;4.20;2.27;;;11.60;99.90;;;;;;4960425;28;20482;-87
2022/11/18 02:39:38;;;;;;;4.87;1.90;;;11.50;99.90;;;;;;4942607;28;20523;-85
2022/11/18 02:42:21;;;;;;;5.13;2.13;;;11.40;99.90;;;;;;4951328;28;20468;-86
2022/11/18 02:45:28;;;;;;;3.13;1.83;;;11.20;99.90;;;;;;4945638;28;21490;-87
2022/11/18 02:48:32;;;;;;;3.00;1.93;;;11.40;99.90;;;;;;4940226;28;20434;-85
2022/11/18 02:51:16;;;;;;;6.80;2.87;;;11.40;99.90;;;;;;4959558;28;20481;-85
2022/11/18 02:54:18;;;;;;;5.90;2.40;;;11.20;99.90;;;;;;4950395;28;20487;-85
2022/11/18 02:56:57;;;;;;;4.93;2.37;;;11.50;99.90;;;;;;4953325;28;21569;-87
2022/11/18 02:59:28;;;;;;;2.77;2.17;;;11.50;99.90;;;;;;4963312;28;20463;-87
2022/11/18 03:02:32;;;;;;;7.30;3.73;;;11.50;99.90;;;;;;4949398;28;20462;-86
2022/11/18 03:05:25;;;;;;;6.43;2.57;;;11.50;99.90;;;;;;4964876;28;20532;-86
2022/11/18 03:08:12;;;;;;;2.40;2.00;;;11.50;99.90;;;;;;4947192;28;20470;-86
2022/11/18 03:11:08;;;;;;;2.40;2.00;;;11.50;99.90;;;;;;4956472;28;21572;-87
2022/11/18 03:14:35;;;;;;;2.73;2.47;;;11.40;99.90;;;;;;4942193;28;20511;-85
2022/11/18 03:17:37;;;;;;;6.00;2.63;;;11.50;99.90;;;;;;4929420;28;20506;-85
2022/11/18 03:20:23;;;;;;;3.23;2.23;;;11.60;99.90;;;;;;4945603;28;20514;-84
2022/11/18 03:23:42;;;;;;;2.87;2.40;;;11.60;99.90;;;;;;4914042;28;20513;-84
2022/11/18 03:26:30;;;;;;;7.30;2.37;;;11.60;99.90;;;;;;4940032;28;20474;-84
2022/11/18 03:29:16;;;;;;;3.70;1.97;;;11.30;99.90;;;;;;4958556;28;20464;-84
2022/11/18 03:32:01;;;;;;;4.03;2.30;;;11.30;99.90;;;;;;4945154;28;20511;-84
2022/11/18 03:34:51;;;;;;;4.87;2.40;;;11.50;99.90;;;;;;4944313;28;20487;-85
2022/11/18 03:37:53;;;;;;;4.47;2.10;;;11.40;99.90;;;;;;4947189;28;20441;-85
2022/11/18 03:40:30;;;;;;;5.67;2.33;;;11.30;99.90;;;;;;4960434;28;20460;-85
2022/11/18 03:43:09;;;;;;;4.67;2.00;;;11.50;99.90;;;;;;4947196;28;20460;-86
2022/11/18 03:49:00;;;;;;;4.33;2.30;;;11.40;99.90;;;;;;4939590;28;20472;-85
2022/11/18 03:51:48;;;;;;;7.10;2.60;;;11.30;99.90;;;;;;4944532;28;20525;-86
2022/11/18 03:54:42;;;;;;;3.80;2.07;;;11.40;99.90;;;;;;4959975;28;20597;-86
2022/11/18 03:57:53;;;;;;;5.67;2.40;;;11.30;99.90;;;;;;4948611;28;20478;-85
2022/11/18 04:00:43;;;;;;;2.43;2.03;;;11.40;99.90;;;;;;4945783;28;20468;-86
2022/11/18 04:03:28;;;;;;;5.00;2.10;;;11.30;99.90;;;;;;4937472;28;20483;-84
2022/11/18 04:10:26;;;;;;;3.57;2.20;;;11.60;99.90;;;;;;4926177;29;20538;-86
2022/11/18 04:13:05;;;;;;;8.00;2.90;;;11.60;99.90;;;;;;4921251;29;20506;-84
2022/11/18 04:15:40;;;;;;;4.03;2.70;;;11.50;99.90;;;;;;4957338;28;20464;-85
2022/11/18 04:18:17;;;;;;;7.43;1.97;;;11.50;99.90;;;;;;4940887;28;20474;-85
2022/11/18 04:20:54;;;;;;;5.10;2.50;;;11.60;99.90;;;;;;4939877;28;20544;-85
2022/11/18 04:23:21;;;;;;;5.23;2.40;;;11.50;99.90;;;;;;4942213;28;21039;-86
2022/11/18 04:26:04;;;;;;;8.70;3.33;;;11.60;99.90;;;;;;4941750;28;20464;-85
2022/11/18 04:28:51;;;;;;;2.70;2.50;;;11.40;99.90;;;;;;4958156;28;20565;-86
2022/11/18 04:31:29;;;;;;;3.30;2.43;;;11.40;99.90;;;;;;4941417;28;20479;-85
2022/11/18 04:34:14;;;;;;;4.70;2.53;;;11.40;99.90;;;;;;4942106;28;20494;-85
2022/11/18 04:37:17;;;;;;;2.07;1.93;;;11.40;99.90;;;;;;4954873;28;20480;-85
2022/11/18 04:39:59;;;;;;;5.17;2.50;;;11.50;99.90;;;;;;4956855;28;20478;-85
2022/11/18 04:43:21;;;;;;;5.80;2.97;;;11.30;99.90;;;;;;4940559;28;20468;-85
2022/11/18 04:50:06;;;;;;;2.97;2.67;;;11.50;99.90;;;;;;4945964;28;20477;-84
2022/11/18 04:55:56;;;;;;;5.03;3.10;;;11.70;99.90;;;;;;4957883;28;20460;-84
2022/11/18 04:58:52;;;;;;;2.33;2.13;;;11.70;99.90;;;;;;4941649;28;20964;-86
2022/11/18 05:02:21;;;;;;;3.80;2.50;;;11.70;99.90;;;;;;4943339;28;20914;-85
2022/11/18 05:04:57;;;;;;;4.50;2.60;;;11.60;99.90;;;;;;4941055;28;20498;-86
2022/11/18 05:07:25;;;;;;;2.50;2.30;;;11.40;99.90;;;;;;4958057;28;20475;-87
2022/11/18 05:10:18;;;;;;;7.30;3.00;;;11.40;99.90;;;;;;4961630;28;20461;-85
2022/11/18 05:12:53;;;;;;;3.10;2.60;;;11.60;99.90;;;;;;4925677;28;20473;-86
2022/11/18 05:15:39;;;;;;;8.10;3.20;;;11.40;99.90;;;;;;4939970;28;20495;-86
2022/11/18 05:18:21;;;;;;;7.30;3.30;;;11.50;99.90;;;;;;4941295;28;20460;-87
2022/11/18 05:21:16;;;;;;;6.73;2.50;;;11.40;99.90;;;;;;4941510;28;20463;-86
2022/11/18 05:23:54;;;;;;;6.17;2.93;;;11.50;99.90;;;;;;4941247;28;20502;-87
2022/11/18 05:26:34;;;;;;;5.57;3.13;;;11.30;99.90;;;;;;4960032;28;21032;-85
2022/11/18 05:29:14;;;;;;;5.00;3.33;;;11.50;99.90;;;;;;4945774;28;20467;-86
2022/11/18 05:31:58;;;;;;;4.37;3.27;;;11.60;99.90;;;;;;4941568;28;20632;-86
2022/11/18 05:34:39;;;;;;;5.60;2.67;;;11.80;99.90;;;;;;4942403;28;20496;-86
2022/11/18 05:37:20;;;;;;;4.27;2.57;;;11.70;99.90;;;;;;4942725;28;20809;-85
2022/11/18 05:39:50;;;;;;;5.50;3.13;;;11.90;99.90;;;;;;4940477;28;20511;-85
2022/11/18 05:45:34;;;;;;;8.10;3.37;;;11.90;99.90;;;;;;4957216;28;20471;-87
2022/11/18 05:48:27;;;;;;;5.50;3.13;;;11.90;99.90;;;;;;4937347;28;21063;-85
2022/11/18 05:51:08;;;;;;;4.43;3.10;;;11.90;99.90;;;;;;4937371;28;20478;-84
2022/11/18 05:54:02;;;;;;;4.10;3.10;;;11.70;99.90;;;;;;4941098;28;21617;-84
2022/11/18 05:56:46;;;;;;;7.93;3.40;;;11.70;99.90;;;;;;4941689;28;20461;-87
2022/11/18 05:59:27;;;;;;;6.87;3.27;;;11.60;99.90;;;;;;4956277;28;20528;-85
2022/11/18 06:02:30;;;;;;;;;;;;;;;;;;;;;
2022/11/18 06:05:37;;;;;;;6.93;3.60;;;11.40;99.90;;;;;;4896131;29;20454;-85
2022/11/18 06:08:18;;;;;;;4.23;2.70;;;11.50;99.90;;;;;;4898489;29;20520;-85
2022/11/18 06:11:39;;;;;;;3.27;3.03;;;11.40;99.90;;;;;;4900988;29;20533;-85
2022/11/18 06:25:07;;;;;;;3.83;2.70;;;11.50;99.90;;;;;;4739601;27;10536196;-85
2022/11/18 06:28:09;;;;;;;4.43;3.40;;;11.30;99.90;;;;;;5071543;28;20424;-87
2022/11/18 06:30:56;;;;;;;5.47;3.87;;;11.50;99.90;;;;;;5071640;28;20469;-85
2022/11/18 06:33:47;;;;;;;3.30;2.93;;;11.60;99.90;;;;;;5071289;28;20552;-86
2022/11/18 06:36:17;;;;;;;7.07;3.40;;;11.60;99.90;;;;;;5072242;28;20500;-85
2022/11/18 06:38:55;;;;;;;5.00;3.50;;;11.60;99.90;;;;;;5071278;28;21473;-85
2022/11/18 06:41:46;;;;;;;5.13;3.20;;;11.50;99.90;;;;;;5075030;28;20462;-85
2022/11/18 06:44:52;;;;;;;5.17;3.80;;;11.50;99.90;;;;;;5087762;28;20511;-86
2022/11/18 06:47:35;;;;;;;3.23;2.73;;;11.30;99.90;;;;;;5069303;28;20457;-84
2022/11/18 06:50:35;;;;;;;4.20;3.10;;;11.10;99.90;;;;;;5072717;28;20444;-85
2022/11/18 06:53:17;;;;;;;8.60;3.57;;;11.00;99.90;;;;;;5071790;28;20912;-85
2022/11/18 06:56:18;;;;;;;5.00;3.47;;;11.20;99.90;;;;;;5066596;28;20431;-84
2022/11/18 06:58:56;;;;;;;9.77;5.77;;;11.50;99.90;;;;;;5071222;28;20484;-85
2022/11/18 07:01:48;;;;;;;9.60;5.63;;;11.60;99.90;;;;;;5071010;28;20457;-83
2022/11/18 07:04:42;;;;;;;10.17;5.83;;;11.60;99.90;;;;;;5088361;28;20486;-89
2022/11/18 07:07:39;;;;;;;7.83;4.80;;;11.60;99.90;;;;;;5074224;28;20454;-86
2022/11/18 07:10:28;;;;;;;5.80;3.93;;;11.30;99.90;;;;;;5081159;28;20435;-87
2022/11/18 07:13:03;;;;;;;10.33;6.27;;;11.30;99.90;;;;;;5095187;22;20584;-85
2022/11/18 07:15:39;;;;;;;7.50;6.30;;;11.50;99.90;;;;;;5008428;28;20525;-85
2022/11/18 07:18:25;;;;;;;8.27;6.30;;;11.40;99.90;;;;;;4995649;28;21689;-84
2022/11/18 07:21:12;;;;;;;9.47;7.80;;;11.20;99.90;;;;;;5011341;28;20488;-84
2022/11/18 07:24:05;;;;;;;7.10;5.93;;;11.20;99.90;;;;;;5006701;28;20463;-84
2022/11/18 07:26:47;;;;;;;6.90;5.20;;;11.20;99.90;;;;;;4978272;28;20477;-87
2022/11/18 07:29:17;;;;;;;6.77;4.87;;;11.20;99.90;;;;;;5005848;28;20475;-85
2022/11/18 07:31:52;;;;;;;4.60;4.20;;;11.40;99.90;;;;;;4980746;28;20447;-85
2022/11/18 07:34:30;;;;;;;6.97;4.70;;;11.50;99.90;;;;;;4983461;28;20497;-84
2022/11/18 07:37:08;;;;;;;5.23;4.70;;;11.50;99.90;;;;;;4980289;28;20465;-85
2022/11/18 07:39:38;;;;;;;6.17;4.80;;;11.50;99.90;;;;;;4981331;28;20464;-86
2022/11/18 07:42:09;;;;;;;5.40;5.00;;;11.60;99.90;;;;;;4980947;28;20558;-84
2022/11/18 07:44:39;;;;;;;6.77;4.83;;;11.60;99.90;;;;;;4986412;28;20501;-87
2022/11/18 07:47:22;;;;;;;6.13;4.93;;;11.40;99.90;;;;;;4981121;28;20554;-86
2022/11/18 07:49:52;;;;;;;6.50;4.50;;;11.60;99.90;;;;;;4981815;28;20452;-84
2022/11/18 07:52:34;;;;;;;5.63;4.90;;;11.70;99.90;;;;;;4979848;28;20498;-86
2022/11/18 07:55:09;;;;;;;7.70;4.70;;;11.60;99.90;;;;;;4981044;28;20528;-84
2022/11/18 07:57:44;;;;;;;4.80;3.60;;;11.60;99.90;;;;;;4986376;28;20508;-84
2022/11/18 08:00:25;;;;;;;5.60;4.17;;;11.60;99.90;;;;;;4993841;28;20455;-87
2022/11/18 08:02:55;;;;;;;6.60;4.10;;;11.70;99.90;;;;;;4977705;28;20454;-83
2022/11/18 08:05:33;;;;;;;5.53;4.63;;;11.70;99.90;;;;;;5000042;28;20478;-84
2022/11/18 08:08:06;;;;;;;6.70;4.20;;;11.70;99.90;;;;;;4980158;28;20524;-84
2022/11/18 08:10:40;;;;;;;6.67;4.50;;;11.80;99.90;;;;;;4978144;28;20451;-84
2022/11/18 08:13:14;;;;;;;5.90;4.37;;;12.00;99.90;;;;;;4996416;28;20521;-84
2022/11/18 08:15:54;;;;;;;5.87;4.80;;;12.00;99.90;;;;;;4979112;28;20994;-84
2022/11/18 08:18:32;;;;;;;4.33;4.00;;;12.00;99.90;;;;;;4981243;28;20516;-85
2022/11/18 08:21:12;;;;;;;5.33;4.03;;;12.00;99.90;;;;;;4979585;28;20549;-84
2022/11/18 08:23:40;;;;;;;5.30;4.80;;;12.00;99.90;;;;;;4976699;28;21267;-84
2022/11/18 08:26:14;;;;;;;7.63;5.97;;;12.00;99.90;;;;;;4997310;28;20562;-85
2022/11/18 08:28:50;;;;;;;7.63;5.30;;;12.40;99.90;;;;;;4983040;28;20499;-85
2022/11/18 08:31:31;;;;;;;7.93;4.60;;;12.50;99.90;;;;;;4983144;28;20835;-86
2022/11/18 08:34:05;;;;;;;5.97;5.00;;;12.50;99.90;;;;;;4983155;28;20527;-85
2022/11/18 08:36:40;;;;;;;4.90;4.10;;;12.50;99.90;;;;;;4976700;28;20449;-84
2022/11/18 08:39:14;;;;;;;5.17;3.70;;;12.30;99.90;;;;;;4995560;28;20459;-85
2022/11/18 08:41:53;;;;;;;5.87;4.50;;;12.30;99.90;;;;;;4996369;28;20456;-85
2022/11/18 08:44:36;;;;;;;4.90;4.10;;;12.30;99.90;;;;;;4980756;28;20503;-84
2022/11/18 08:47:12;;;;;;;4.77;4.37;;;12.40;99.90;;;;;;4977387;28;20961;-85
2022/11/18 08:49:59;;;;;;;6.93;4.43;;;12.40;99.90;;;;;;4984513;28;20466;-84
2022/11/18 08:56:06;;;;;;;6.03;4.07;;;12.30;99.90;;;;;;4999731;28;20906;-85
2022/11/18 08:59:04;;;;;;;6.70;5.00;;;12.40;99.90;;;;;;4982536;28;20967;-85
2022/11/18 09:01:49;;;;;;;6.70;5.17;;;12.30;99.90;;;;;;4994871;28;20452;-85
2022/11/18 09:04:24;;;;;;;5.63;5.03;;;12.20;99.90;;;;;;4999962;28;20525;-85
2022/11/18 09:07:31;;;;;;;6.33;5.03;;;12.40;99.90;;;;;;4940361;28;20449;-85
2022/11/18 09:10:38;;;;;;;4.93;3.93;;;12.40;99.90;;;;;;4952235;28;20456;-83
2022/11/18 09:13:17;;;;;;;5.57;4.00;;;12.10;99.90;;;;;;4944268;28;20532;-84
2022/11/18 09:16:02;;;;;;;7.17;4.30;;;12.20;99.90;;;;;;4942795;28;20492;-85
2022/11/18 09:22:20;;;;;;;5.00;3.60;;;12.10;99.90;;;;;;4955179;28;20461;-84
2022/11/18 09:24:58;;;;;;;4.53;3.67;;;12.50;99.90;;;;;;4931093;28;20488;-84
2022/11/18 09:28:10;;;;;;;5.23;2.70;;;13.20;99.90;;;;;;4927373;29;20439;-86
2022/11/18 09:31:07;;;;;;;3.13;1.93;;;13.60;99.90;;;;;;4926189;28;21288;-86
2022/11/18 09:33:54;;;;;;;2.37;2.10;;;13.90;99.90;;;;;;4953375;28;20489;-86
2022/11/18 09:36:39;;;;;;;2.73;1.90;;;14.60;99.90;;;;;;4942456;29;20601;-87
2022/11/18 09:39:39;;;;;;;4.23;2.50;;;15.50;99.60;;;;;;4926385;29;20529;-86
2022/11/18 09:45:50;;;;;;;4.50;2.60;;;15.80;96.60;;;;;;5025993;28;20470;-85
2022/11/18 09:55:58;;;;;;;3.47;2.40;;;15.50;95.90;;;;;;5002470;28;20543;-85
2022/11/18 09:58:53;;;;;;;2.50;2.30;;;15.10;96.20;;;;;;4982902;28;20489;-85
2022/11/18 10:01:43;;;;;;;4.43;2.30;;;14.70;96.60;;;;;;4993144;28;20430;-84
2022/11/18 10:09:01;;;;;;;2.70;1.80;;;14.30;97.30;;;;;;4933221;29;20454;-85
2022/11/18 10:12:51;;;;;;;5.00;1.80;;;13.90;98.30;;;;;;4936150;28;20449;-87
2022/11/18 10:15:46;;;;;;;6.23;2.60;;;13.60;99.20;;;;;;4960840;28;20559;-86
2022/11/18 10:18:44;;;;;;;3.10;1.70;;;13.50;99.90;;;;;;4988635;28;20460;-87
2022/11/18 10:22:08;;;;;;;3.03;2.10;;;13.50;99.90;;;;;;5000538;28;20458;-86
2022/11/18 10:25:10;;;;;;;6.07;2.73;;;13.70;99.90;;;;;;4983822;28;20575;-86
2022/11/18 10:27:45;;;;;;;6.27;1.90;;;14.30;98.80;;;;;;5002228;28;20481;-86
2022/11/18 10:30:27;;;;;;;4.90;1.33;;;14.50;97.10;;;;;;5000679;28;20574;-86
2022/11/18 10:33:28;;;;;;;3.50;2.13;;;14.20;97.60;;;;;;4982941;28;20469;-88
2022/11/18 10:36:26;;;;;;;3.40;1.43;;;14.20;98.00;;;;;;4999611;28;20447;-88
2022/11/18 10:39:24;;;;;;;6.00;2.57;;;14.00;97.70;;;;;;4980732;28;20461;-86
2022/11/18 10:41:59;;;;;;;1.60;1.50;;;14.40;97.30;;;;;;4997150;28;20486;-85
2022/11/18 10:44:47;;;;;;;5.00;2.10;;;14.10;97.20;;;;;;4985783;28;20499;-86
2022/11/18 10:47:46;;;;;;;2.87;1.40;;;14.00;97.80;;;;;;4980877;28;20574;-86
2022/11/18 10:51:07;;;;;;;4.23;2.67;;;14.20;97.80;;;;;;4977976;28;20969;-86
2022/11/18 10:53:47;;;;;;;1.33;1.10;;;14.00;97.50;;;;;;4981294;23;22616;-86
2022/11/18 10:56:19;;;;;;;2.53;1.87;;;14.40;96.60;;;;;;5000718;28;20460;-84
2022/11/18 10:58:55;;;;;;;4.20;1.83;;;14.30;96.60;;;;;;5032119;28;20938;-84
2022/11/18 11:01:25;;;;;;;6.43;2.63;;;14.30;96.60;;;;;;5013424;28;20456;-83
2022/11/18 11:04:11;;;;;;;4.90;1.50;;;14.20;97.00;;;;;;5015882;28;20489;-84
2022/11/18 11:06:38;;;;;;;7.17;1.60;;;14.10;96.60;;;;;;5016556;28;20469;-86
2022/11/18 11:09:22;;;;;;;2.13;1.47;;;14.00;97.30;;;;;;5012809;28;20474;-85
2022/11/18 11:12:18;;;;;;;7.63;1.50;;;14.20;96.80;;;;;;5019010;28;20453;-86
2022/11/18 11:14:54;;;;;;;3.50;1.40;;;13.90;97.00;;;;;;5025834;28;21016;-85
2022/11/18 11:18:40;;;;;;;2.20;1.60;;;14.00;97.10;;;;;;5021248;28;22002;-86
2022/11/18 11:20:39;;;;;;;2.40;1.50;;;14.20;96.90;;;;;;5037861;28;20458;-85
2022/11/18 11:23:30;;;;;;;2.03;1.83;;;14.20;96.40;;;;;;5037850;28;20579;-85
2022/11/18 11:26:46;;;;;;;3.87;1.60;;;14.00;96.60;;;;;;5021535;28;20464;-86
2022/11/18 11:30:10;;;;;;;6.70;2.20;;;14.00;97.10;;;;;;4942983;28;20519;-84
2022/11/18 11:33:26;;;;;;;2.87;1.47;;;14.00;96.70;;;;;;4943256;28;20480;-85
2022/11/18 11:36:51;;;;;;;2.90;1.60;;;14.10;96.40;;;;;;4942732;28;20445;-85
2022/11/18 11:40:15;;;;;;;4.33;1.57;;;14.10;96.40;;;;;;4919914;28;20455;-86
2022/11/18 11:43:24;;;;;;;;;;;;;;;;;;;;;
2022/11/18 11:47:45;;;;;;;5.67;1.80;;;13.90;96.50;;;;;;4952157;28;20989;-86
2022/11/18 11:49:59;;;;;;;4.23;1.40;;;14.10;96.60;;;;;;4956245;28;20603;-85
2022/11/18 11:52:48;;;;;;;3.30;1.40;;;14.20;96.60;;;;;;4949230;28;20455;-86
2022/11/18 11:56:07;;;;;;;4.00;1.80;;;14.20;96.40;;;;;;4936894;28;21074;-86
2022/11/18 11:59:18;;;;;;;1.20;1.10;;;14.40;96.40;;;;;;4936227;28;20869;-84
2022/11/18 12:02:23;;;;;;;3.13;1.33;;;14.40;96.00;;;;;;4971243;28;20644;-85
2022/11/18 12:04:52;;;;;;;5.27;1.60;;;14.40;96.20;;;;;;5015007;28;21055;-86
2022/11/18 12:07:23;;;;;;;5.30;1.37;;;14.40;96.00;;;;;;5018053;28;20554;-85
2022/11/18 12:10:14;;;;;;;4.40;1.40;;;14.30;96.10;;;;;;5019566;28;20461;-87
2022/11/18 12:13:33;;;;;;;3.80;1.30;;;14.40;96.00;;;;;;5036335;28;21011;-87
2022/11/18 12:16:47;;;;;;;4.43;1.40;;;14.10;96.20;;;;;;5019802;28;20540;-85
2022/11/18 12:19:36;;;;;;;3.00;1.83;;;13.70;97.00;;;;;;5015664;28;20805;-85
2022/11/18 12:22:04;;;;;;;4.00;1.33;;;13.70;97.40;;;;;;5016445;28;20457;-85
2022/11/18 12:24:57;;;;;;;5.03;1.57;;;13.70;97.30;;;;;;5023513;28;20991;-85
2022/11/18 12:27:27;;;;;;;7.60;1.77;;;13.70;97.10;;;;;;5020130;28;20466;-85
2022/11/18 12:30:03;;;;;;;3.50;1.80;;;13.80;97.20;;;;;;5017955;28;20515;-86
2022/11/18 12:35:50;;;;;;;3.77;1.10;;;13.80;96.50;;;;;;5033029;28;20485;-86
2022/11/18 12:38:39;;;;;;;4.80;1.43;;;13.80;96.50;;;;;;5017536;28;20471;-87
2022/11/18 12:44:59;;;;;;;3.70;1.83;;;13.80;96.70;;;;;;5011573;28;21061;-84
2022/11/18 12:47:55;;;;;;;8.33;1.67;;;13.80;96.70;;;;;;5017930;28;20587;-83
2022/11/18 12:50:54;;;;;;;6.63;2.17;;;13.80;96.60;;;;;;5016955;28;20980;-87
2022/11/18 12:54:03;;;;;;;;;;;;;;;;;;;;;
2022/11/18 12:57:14;;;;;;;2.50;1.90;;;14.00;96.60;;;;;;5041070;28;21203;-88
2022/11/18 13:00:51;;;;;;;6.53;1.37;;;14.10;96.50;;;;;;5025144;28;20439;-88
2022/11/18 13:03:37;;;;;;;2.37;1.23;;;14.00;96.40;;;;;;5017788;28;20468;-86
2022/11/18 13:06:35;;;;;;;4.03;1.40;;;14.50;96.10;;;;;;5034469;28;20457;-86
2022/11/18 13:10:07;;;;;;;6.40;1.87;;;14.20;95.30;;;;;;5018060;28;20458;-87
2022/11/18 13:28:12;;;;;;;;;;;;;;;;;;;;;
2022/11/18 14:17:58;;;;;;;;;;;;;;;;;;;;;
2022/11/18 15:30:03;;;;;;;3.00;1.63;;;13.00;98.30;;;;;;4970542;28;20480;-88
2022/11/18 18:36:19;;;;;;;9.40;4.60;;;13.00;99.90;;;;;;4960746;28;20495;-84
2022/11/18 18:39:59;;;;;;;7.07;5.53;;;13.00;99.90;;;;;;4968036;28;20986;-84
2022/11/18 19:21:14;;;;;;;4.07;3.67;;;12.30;99.90;;;;;;5015297;26;20932;-85
2022/11/18 19:24:11;;;;;;;8.43;4.80;;;12.30;99.90;;;;;;5004248;28;20454;-85
2022/11/18 19:26:54;;;;;;;7.27;4.83;;;12.40;99.90;;;;;;5015122;28;20478;-85
2022/11/18 19:32:57;;;;;;;5.47;4.10;;;12.20;99.90;;;;;;5013435;28;21229;-86
2022/11/18 19:36:13;;;;;;;8.10;4.13;;;12.10;99.90;;;;;;5005642;28;21175;-84
2022/11/18 19:39:04;;;;;;;6.10;4.50;;;12.30;99.90;;;;;;5003569;28;20459;-84
2022/11/18 19:42:10;;;;;;;6.63;4.87;;;12.20;99.90;;;;;;5024379;28;20528;-89
2022/11/18 19:44:53;;;;;;;6.70;5.03;;;12.20;99.90;;;;;;5038751;28;20465;-88
2022/11/18 19:47:42;;;;;;;6.50;5.00;;;12.20;99.90;;;;;;5011038;28;20476;-88
2022/11/18 19:50:51;;;;;;;5.40;4.90;;;12.40;99.90;;;;;;4994225;28;20846;-87
2022/11/18 19:53:49;;;;;;;5.60;3.80;;;12.70;99.90;;;;;;5002661;28;20477;-85
2022/11/18 19:56:32;;;;;;;7.57;4.17;;;12.90;99.90;;;;;;5001417;28;22153;-87
2022/11/18 19:59:16;;;;;;;6.20;3.60;;;12.80;99.90;;;;;;5000520;28;20999;-88
2022/11/18 20:01:48;;;;;;;6.80;3.90;;;12.50;99.90;;;;;;5002282;28;20457;-86
2022/11/18 20:04:35;;;;;;;3.60;3.30;;;12.40;99.90;;;;;;4992741;28;20842;-85
2022/11/18 20:07:18;;;;;;;4.87;3.90;;;12.70;99.90;;;;;;4998096;28;20437;-87
2022/11/18 20:09:57;;;;;;;8.33;4.17;;;12.80;99.90;;;;;;5016912;28;20458;-89
2022/11/18 20:12:57;;;;;;;4.23;3.57;;;12.80;99.90;;;;;;5018753;28;21041;-87
2022/11/18 20:24:25;;;;;;;6.40;4.00;;;12.60;99.90;;;;;;4965517;28;20557;-85
2022/11/18 20:27:22;;;;;;;4.83;3.47;;;12.40;99.90;;;;;;4951746;28;20487;-86
2022/11/18 20:30:32;;;;;;;5.87;3.90;;;12.40;99.90;;;;;;4964642;28;20453;-86
2022/11/18 20:36:27;;;;;;;2.70;2.50;;;12.40;99.90;;;;;;4983075;28;20526;-85
2022/11/18 20:39:42;;;;;;;3.83;2.77;;;12.40;99.90;;;;;;4969443;28;20499;-85
2022/11/18 20:46:12;;;;;;;6.73;2.90;;;12.30;99.90;;;;;;4979734;28;20824;-84
2022/11/18 20:48:52;;;;;;;4.93;2.90;;;12.00;99.90;;;;;;4968383;28;20495;-85
2022/11/18 20:51:49;;;;;;;2.93;2.73;;;12.10;99.90;;;;;;4967494;28;20446;-85
2022/11/18 20:54:32;;;;;;;3.53;3.23;;;12.20;99.90;;;;;;4965483;28;20482;-86
2022/11/18 20:57:08;;;;;;;3.60;2.63;;;12.40;99.90;;;;;;4966980;28;20472;-86
2022/11/18 21:00:37;;;;;;;4.70;3.57;;;12.40;99.90;;;;;;4974029;28;20433;-85
2022/11/18 21:03:23;;;;;;;6.97;3.10;;;12.20;99.90;;;;;;4983164;28;20471;-84
2022/11/18 21:06:19;;;;;;;3.27;2.97;;;12.10;99.90;;;;;;4970728;28;20522;-86
2022/11/18 21:12:35;;;;;;;11.77;3.10;;;12.00;99.90;;;;;;4988125;28;20444;-87
2022/11/18 21:15:42;;;;;;;3.43;2.80;;;11.90;99.90;;;;;;4994711;28;20567;-86
2022/11/18 21:19:03;;;;;;;5.80;2.90;;;12.00;99.90;;;;;;4966499;28;20448;-84
2022/11/18 21:22:07;;;;;;;4.23;2.97;;;12.20;99.90;;;;;;4993133;28;20490;-89
2022/11/18 21:25:00;;;;;;;8.10;4.73;;;12.30;99.90;;;;;;4968831;28;20463;-86
2022/11/18 21:27:50;;;;;;;10.23;7.80;;;12.30;99.90;;;;;;4981044;28;20466;-86
2022/11/18 21:30:58;;;;;;;4.17;3.60;;;12.30;99.90;;;;;;4981632;28;20526;-87
2022/11/18 21:33:36;;;;;;;13.70;8.80;;;12.20;99.90;;;;;;4911393;22;20487;-87
2022/11/18 21:36:17;;;;;;;12.60;9.70;;;12.10;99.90;;;;;;4956296;28;20601;-87
2022/11/18 21:39:15;;;;;;;7.70;4.83;;;12.10;99.90;;;;;;4956077;28;20461;-87
2022/11/18 21:41:53;;;;;;;32.60;25.27;;;12.00;99.90;;;;;;4959719;28;20460;-87
2022/11/18 21:44:37;;;;;;;6.50;3.50;;;12.00;99.90;;;;;;4945685;28;20453;-89
2022/11/18 21:47:42;;;;;;;9.50;6.30;;;12.00;99.90;;;;;;4943951;28;20546;-88
2022/11/18 21:50:24;;;;;;;17.30;11.57;;;12.00;99.90;;;;;;4949095;28;20468;-86
2022/11/18 21:53:08;;;;;;;46.03;26.00;;;11.90;99.90;;;;;;4947290;28;20464;-86
2022/11/18 21:56:32;;;;;;;61.53;38.37;;;11.80;99.90;;;;;;4907450;29;20493;-86
2022/11/18 21:59:26;;;;;;;65.23;49.47;;;11.50;99.90;;;;;;4925106;29;20509;-87
2022/11/18 22:02:29;;;;;;;16.80;12.00;;;11.50;99.90;;;;;;4939896;29;20469;-89
2022/11/18 22:05:14;;;;;;;19.97;16.73;;;11.40;99.90;;;;;;4923194;29;20549;-87
2022/11/18 22:08:06;;;;;;;9.83;7.53;;;11.50;99.90;;;;;;4924153;29;20469;-84
2022/11/18 22:10:55;;;;;;;16.70;13.40;;;11.40;99.90;;;;;;4919902;29;20897;-87
2022/11/18 22:13:51;;;;;;;9.97;7.10;;;11.50;99.90;;;;;;4924725;28;21435;-84
2022/11/18 22:16:56;;;;;;;45.17;32.40;;;11.70;99.90;;;;;;4941354;28;21319;-87
2022/11/18 22:19:51;;;;;;;15.60;11.73;;;11.60;99.90;;;;;;4954089;28;20457;-87
2022/11/18 22:22:44;;;;;;;8.80;6.77;;;11.60;99.90;;;;;;4938847;28;20446;-88
2022/11/18 22:25:57;;;;;;;8.70;5.80;;;11.60;99.90;;;;;;4936790;28;20595;-86